모두
Norseman Airport (Norseman, Western Australia) YNSM 기상
|
Norseman, Western Australia (YNSM)
맑은 하늘
가벼운 바람 |
|
14 °C |
There is no TAF data available at YNSM or any nearby airports.
최근 YNSM METAR 이력
| Date | Time (AWST) | Flight Rules | Wind Dir. | Speed | Type | Height AGL (ft) | Visibility | Temp (°C) | Temp (°F) | Dew Point (°C) | Dew Point (°F) | Rel. Humid. | Pressure | Density Altitude | Remarks |
|---|---|---|---|---|---|---|---|---|---|---|---|---|---|---|---|
| 10-5월 | 09:00 | n/a | 20° | 7 kt | Missing | 14° | 57° | 11° | 51° | 82% | 1030 mb | 255 ft | |||
| 10-5월 | 08:00 | n/a | 40° | 2 kt | Missing | 12° | 53° | 10° | 50° | 88% | 1030 mb | 15 ft | |||
| 10-5월 | 07:00 | n/a | 80° | 5 kt | Missing | 10° | 50° | 9° | 48° | 93% | 1030 mb | -225 ft | |||
| 10-5월 | 06:00 | n/a | 50° | 5 kt | Missing | 10° | 50° | 9° | 48° | 93% | 1029 mb | -195 ft | |||
| 10-5월 | 05:00 | n/a | 70° | 6 kt | Missing | 11° | 51° | 10° | 50° | 94% | 1029 mb | -75 ft | |||
| 10-5월 | 04:00 | n/a | 100° | 5 kt | Missing | 11° | 51° | 8° | 46° | 82% | 1029 mb | -75 ft | |||
| 10-5월 | 03:00 | n/a | 90° | 7 kt | Missing | 12° | 53° | 8° | 46° | 76% | 1029 mb | 45 ft | |||
| 10-5월 | 02:00 | n/a | 90° | 5 kt | Missing | 12° | 53° | 8° | 46° | 76% | 1029 mb | 45 ft | |||
| 10-5월 | 01:00 | n/a | Calm | Missing | 9° | 48° | 5° | 41° | 76% | 1029 mb | -315 ft | ||||
| 10-5월 | 00:00 | n/a | 90° | 6 kt | Missing | 8° | 46° | 6° | 42° | 87% | 1029 mb | -435 ft | |||
| 09-5월 | 23:00 | n/a | 80° | 3 kt | Missing | 9° | 48° | 6° | 42° | 81% | 1029 mb | -315 ft | |||
| 09-5월 | 22:00 | n/a | 80° | 7 kt | Missing | 12° | 53° | 7° | 44° | 71% | 1029 mb | 45 ft | |||
| 09-5월 | 21:00 | n/a | 80° | 7 kt | Missing | 13° | 55° | 7° | 44° | 67% | 1029 mb | 165 ft | |||
| 09-5월 | 20:00 | n/a | 90° | 8 kt | Missing | 14° | 57° | 7° | 44° | 63% | 1029 mb | 285 ft | |||
| 09-5월 | 19:00 | n/a | 100° | 8 kt | Missing | 15° | 59° | 8° | 46° | 63% | 1029 mb | 405 ft | |||
| 09-5월 | 18:00 | n/a | 100° | 7 kt | Missing | 17° | 62° | 7° | 44° | 52% | 1029 mb | 645 ft | |||
| 09-5월 | 17:00 | n/a | 70° | 7 kt | Missing | 19° | 66° | 6° | 42° | 43% | 1028 mb | 914 ft | |||
| 09-5월 | 16:00 | n/a | 80° | 7 kt | Missing | 20° | 68° | 6° | 42° | 40% | 1028 mb | 1,034 ft | |||
| 09-5월 | 15:00 | n/a | 50° | 7 kt | Missing | 20° | 68° | 6° | 42° | 40% | 1028 mb | 1,034 ft | |||
| 09-5월 | 14:00 | n/a | 60° | 7 kt | Missing | 20° | 68° | 6° | 42° | 40% | 1028 mb | 1,034 ft | |||
| 09-5월 | 13:00 | n/a | 60° | 6 kt | Missing | 18° | 64° | 7° | 44° | 49% | 1029 mb | 765 ft | |||
| 09-5월 | 12:00 | n/a | 40° | 9 kt | Missing | 18° | 64° | 7° | 44° | 49% | 1030 mb | 735 ft | |||
| 09-5월 | 11:00 | n/a | 20° | 7 kt | Missing | 16° | 60° | 7° | 44° | 55% | 1031 mb | 466 ft | |||
| 09-5월 | 10:00 | n/a | 30° | 9 kt | Missing | 15° | 59° | 7° | 44° | 59% | 1032 mb | 316 ft |
로그인
| 귀하의 브라우저는 지원되지 않습니다.. 브라우저를 업그레이드하세요 |
